createdAt,value
2022-12-23T00:01:00.084Z,8.43
2022-12-23T00:03:28.740Z,8.35
2022-12-23T00:05:56.716Z,5.68
2022-12-23T00:08:25.064Z,9.60
2022-12-23T00:10:55.596Z,7.20
2022-12-23T00:13:40.967Z,5.13
2022-12-23T00:16:10.477Z,13.45
2022-12-23T00:18:38.775Z,9.93
2022-12-23T00:21:09.410Z,7.45
2022-12-23T00:23:39.425Z,9.07
2022-12-23T00:26:09.359Z,9.00
2022-12-23T00:28:37.151Z,5.85
2022-12-23T00:31:07.436Z,6.38
2022-12-23T00:33:36.875Z,7.03
2022-12-23T00:36:12.635Z,8.23
2022-12-23T00:38:57.774Z,7.05
2022-12-23T00:41:44.718Z,6.85
2022-12-23T00:44:12.590Z,6.32
2022-12-23T00:46:40.431Z,5.28
2022-12-23T00:49:25.883Z,7.77
2022-12-23T00:51:54.105Z,8.20
2022-12-23T00:54:21.938Z,6.53
2022-12-23T00:56:51.129Z,5.90
2022-12-23T00:59:19.665Z,6.72
2022-12-23T01:02:05.104Z,6.13
2022-12-23T01:04:50.730Z,4.72
2022-12-23T01:07:18.556Z,4.65
2022-12-23T01:09:46.439Z,5.43
2022-12-23T01:12:15.884Z,5.80
2022-12-23T01:14:43.676Z,6.60
2022-12-23T01:17:11.633Z,4.28
2022-12-23T01:19:39.617Z,5.00
2022-12-23T01:22:07.365Z,6.88
2022-12-23T01:24:35.177Z,7.45
2022-12-23T01:27:02.937Z,4.67
2022-12-23T01:29:32.271Z,5.32
2022-12-23T01:32:00.123Z,6.53
2022-12-23T01:34:34.376Z,5.22
2022-12-23T01:37:04.455Z,5.20
2022-12-23T01:39:32.257Z,4.00
2022-12-23T01:42:17.595Z,8.13
2022-12-23T01:45:00.694Z,4.90
2022-12-23T01:47:34.466Z,3.95
2022-12-23T01:50:08.685Z,7.55
2022-12-23T01:52:41.766Z,9.17
2022-12-23T01:55:10.237Z,10.98
2022-12-23T01:57:42.745Z,7.30
2022-12-23T02:00:30.165Z,5.90
2022-12-23T02:03:15.692Z,6.50
2022-12-23T02:05:45.203Z,4.90
2022-12-23T02:08:31.827Z,5.68
2022-12-23T02:11:18.636Z,6.20
2022-12-23T02:14:06.590Z,5.82
2022-12-23T02:16:44.424Z,4.07
2022-12-23T02:19:15.600Z,4.10
2022-12-23T02:21:53.617Z,5.40
2022-12-23T02:24:48.625Z,6.70
2022-12-23T02:27:20.668Z,7.95
2022-12-23T02:30:27.126Z,5.32
2022-12-23T02:33:16.489Z,4.57
2022-12-23T02:35:52.383Z,4.63
2022-12-23T02:38:27.530Z,5.43
2022-12-23T02:41:05.127Z,10.43
2022-12-23T02:43:40.711Z,4.22
2022-12-23T02:46:12.466Z,7.10
2022-12-23T02:48:47.105Z,7.38
2022-12-23T02:51:16.845Z,5.55
2022-12-23T02:53:50.330Z,4.13
2022-12-23T02:56:21.124Z,5.88
2022-12-23T02:58:54.345Z,4.20
2022-12-23T03:01:24.693Z,4.38
2022-12-23T03:03:54.147Z,4.82
2022-12-23T03:06:24.438Z,6.22
2022-12-23T03:08:55.604Z,4.93
2022-12-23T03:11:28.452Z,5.43
2022-12-23T03:14:13.985Z,3.63
2022-12-23T03:16:52.517Z,4.55
2022-12-23T03:19:31.678Z,4.55
2022-12-23T03:22:10.007Z,4.35
2022-12-23T03:24:45.528Z,4.77
2022-12-23T03:27:18.303Z,5.07
2022-12-23T03:29:55.689Z,7.50
2022-12-23T03:32:25.687Z,4.82
2022-12-23T03:34:59.441Z,3.95
2022-12-23T03:37:31.127Z,5.80
2022-12-23T03:40:05.270Z,4.93
2022-12-23T03:42:38.563Z,8.52
2022-12-23T03:45:38.141Z,7.70
2022-12-23T03:48:05.104Z,4.15
2022-12-23T03:50:37.370Z,5.83
2022-12-23T03:53:10.990Z,6.82
2022-12-23T03:55:44.756Z,6.90
2022-12-23T03:58:18.894Z,4.90
2022-12-23T04:01:00.894Z,4.57
2022-12-23T04:03:37.131Z,5.23
2022-12-23T04:06:12.505Z,5.63
2022-12-23T04:08:42.554Z,5.70
2022-12-23T04:11:10.721Z,6.10
2022-12-23T04:13:38.593Z,6.63
2022-12-23T04:16:08.091Z,5.00
2022-12-23T04:18:36.031Z,6.45
2022-12-23T04:21:03.852Z,4.22
2022-12-23T04:23:33.034Z,6.90
2022-12-23T04:26:00.857Z,5.32
2022-12-23T04:28:28.650Z,4.60
2022-12-23T04:30:56.463Z,7.05
2022-12-23T04:33:24.324Z,8.20
2022-12-23T04:35:52.103Z,4.93
2022-12-23T04:38:19.878Z,6.93
2022-12-23T04:40:49.065Z,4.87
2022-12-23T04:43:16.879Z,5.82
2022-12-23T04:45:44.692Z,5.28
2022-12-23T04:48:12.499Z,6.45
2022-12-23T04:50:40.734Z,6.47
2022-12-23T04:53:08.533Z,7.63
2022-12-23T04:55:36.382Z,6.03
2022-12-23T04:58:05.527Z,4.40
2022-12-23T05:00:39.124Z,6.18
2022-12-23T05:03:08.024Z,5.18
2022-12-23T05:05:36.050Z,7.53
2022-12-23T05:08:05.517Z,3.60
2022-12-23T05:10:33.295Z,4.28
2022-12-23T05:13:01.087Z,3.75
2022-12-23T05:15:33.018Z,4.43
2022-12-23T05:18:00.878Z,4.73
2022-12-23T05:20:28.710Z,4.25
2022-12-23T05:22:56.554Z,4.18
2022-12-23T05:25:24.309Z,3.28
2022-12-23T05:27:52.065Z,5.85
2022-12-23T05:30:19.901Z,3.30
2022-12-23T05:32:49.044Z,3.95
2022-12-23T05:35:16.999Z,4.22
2022-12-23T05:37:44.795Z,3.90
2022-12-23T05:40:15.013Z,3.55
2022-12-23T05:42:47.755Z,3.00
2022-12-23T05:45:15.608Z,4.75
2022-12-23T05:47:43.374Z,3.92
2022-12-23T05:50:13.059Z,4.32
2022-12-23T05:52:41.160Z,2.90
2022-12-23T05:55:10.159Z,4.80
2022-12-23T05:57:37.944Z,5.15
2022-12-23T06:00:06.590Z,3.00
2022-12-23T06:02:34.547Z,3.75
2022-12-23T06:05:02.415Z,3.35
2022-12-23T06:07:31.583Z,3.80
2022-12-23T06:09:59.437Z,3.45
2022-12-23T06:12:27.446Z,3.55
2022-12-23T06:14:55.252Z,2.95
2022-12-23T06:17:23.092Z,4.22
2022-12-23T06:19:50.905Z,3.90
2022-12-23T06:22:21.020Z,4.90
2022-12-23T06:24:50.388Z,5.28
2022-12-23T06:27:18.683Z,3.25
2022-12-23T06:29:46.514Z,2.67
2022-12-23T06:32:14.478Z,3.97
2022-12-23T06:34:42.302Z,3.03
2022-12-23T06:37:10.093Z,2.97
2022-12-23T06:39:37.915Z,3.90
2022-12-23T06:42:07.122Z,4.18
2022-12-23T06:44:34.923Z,2.30
2022-12-23T06:47:02.717Z,4.25
2022-12-23T06:49:30.469Z,3.35
2022-12-23T06:51:58.291Z,2.80
2022-12-23T06:54:26.070Z,5.38
2022-12-23T06:56:53.867Z,3.10
2022-12-23T06:59:23.052Z,4.03
2022-12-23T07:01:50.872Z,3.55
2022-12-23T07:04:18.951Z,3.15
2022-12-23T07:06:46.752Z,4.22
2022-12-23T07:09:15.500Z,2.73
2022-12-23T07:11:43.255Z,2.83
2022-12-23T07:14:11.701Z,3.65
2022-12-23T07:16:40.918Z,2.80
2022-12-23T07:19:09.191Z,5.22
2022-12-23T07:21:38.757Z,4.27
2022-12-23T07:24:07.607Z,3.85
2022-12-23T07:26:35.368Z,2.03
2022-12-23T07:29:04.648Z,3.60
2022-12-23T07:31:32.556Z,5.20
2022-12-23T07:34:01.765Z,3.80
2022-12-23T07:36:29.524Z,2.25
2022-12-23T07:38:57.308Z,6.40
2022-12-23T07:41:25.114Z,3.58
2022-12-23T07:43:52.981Z,2.60
2022-12-23T07:46:20.869Z,2.80
2022-12-23T07:48:48.729Z,3.35
2022-12-23T07:51:17.894Z,3.38
2022-12-23T07:53:49.536Z,3.70
2022-12-23T07:56:17.458Z,3.20
2022-12-23T07:58:45.245Z,3.87
2022-12-23T08:01:13.125Z,3.17
2022-12-23T08:03:41.049Z,4.53
2022-12-23T08:06:12.593Z,6.93
2022-12-23T08:08:43.090Z,5.13
2022-12-23T08:11:12.511Z,5.90
2022-12-23T08:13:42.368Z,4.70
2022-12-23T08:16:10.842Z,3.20
2022-12-23T08:18:40.603Z,4.60
2022-12-23T08:21:11.417Z,6.32
2022-12-23T08:23:39.264Z,4.23
2022-12-23T08:26:10.517Z,3.10
2022-12-23T08:28:39.837Z,3.03
2022-12-23T08:31:09.422Z,3.78
2022-12-23T08:33:38.497Z,6.78
2022-12-23T08:36:08.186Z,4.00
2022-12-23T08:38:36.651Z,6.78
2022-12-23T08:41:05.132Z,8.02
2022-12-23T08:43:36.092Z,3.55
2022-12-23T08:46:04.887Z,3.28
2022-12-23T08:48:32.807Z,4.27
2022-12-23T08:51:04.697Z,4.00
2022-12-23T08:53:32.663Z,9.95
2022-12-23T08:56:03.804Z,3.85
2022-12-23T08:58:32.065Z,4.20
2022-12-23T09:01:04.224Z,3.70
2022-12-23T09:03:32.154Z,3.50
2022-12-23T09:06:00.263Z,4.85
2022-12-23T09:08:28.092Z,3.70
2022-12-23T09:10:55.812Z,4.05
2022-12-23T09:13:32.734Z,3.97
2022-12-23T09:16:03.946Z,5.03
2022-12-23T09:18:32.126Z,3.67
2022-12-23T09:21:00.535Z,3.80
2022-12-23T09:23:28.933Z,4.20
2022-12-23T09:25:57.029Z,3.20
2022-12-23T09:28:25.741Z,4.63
2022-12-23T09:30:53.947Z,3.97
2022-12-23T09:33:23.590Z,5.18
2022-12-23T09:35:51.355Z,4.30
2022-12-23T09:38:19.130Z,5.53
2022-12-23T09:40:46.877Z,4.32
2022-12-23T09:43:27.180Z,4.00
2022-12-23T09:46:07.711Z,4.68
2022-12-23T09:48:46.064Z,4.85
2022-12-23T09:51:14.759Z,5.83
2022-12-23T09:53:53.830Z,4.72
2022-12-23T09:56:28.913Z,5.03
2022-12-23T09:59:05.233Z,3.30
2022-12-23T10:01:41.483Z,5.88
2022-12-23T10:04:44.857Z,4.67
2022-12-23T10:07:28.711Z,4.45
2022-12-23T10:09:59.657Z,4.78
2022-12-23T10:12:40.084Z,3.75
2022-12-23T10:15:21.703Z,5.57
2022-12-23T10:17:53.578Z,4.03
2022-12-23T10:20:31.067Z,5.65
2022-12-23T10:23:00.931Z,3.70
2022-12-23T10:25:35.882Z,4.40
2022-12-23T10:28:03.744Z,4.65
2022-12-23T10:31:05.666Z,4.30
2022-12-23T10:33:24.656Z,5.63
2022-12-23T10:36:02.686Z,5.25
2022-12-23T10:38:52.449Z,4.13
2022-12-23T10:41:30.344Z,5.53
2022-12-23T10:44:27.824Z,5.23
2022-12-23T10:47:07.082Z,3.97
2022-12-23T10:49:44.319Z,4.97
2022-12-23T10:52:16.447Z,2.85
2022-12-23T10:54:47.365Z,4.13
2022-12-23T10:57:17.785Z,3.53
2022-12-23T10:59:45.861Z,3.60
2022-12-23T11:02:33.328Z,4.10
2022-12-23T11:05:01.282Z,4.28
2022-12-23T11:07:47.275Z,5.72
2022-12-23T11:10:19.526Z,3.73
2022-12-23T11:12:49.775Z,4.32
2022-12-23T11:15:30.624Z,3.08
2022-12-23T11:18:03.813Z,4.93
2022-12-23T11:20:31.952Z,3.78
2022-12-23T11:23:02.959Z,4.90
2022-12-23T11:25:38.256Z,4.97
2022-12-23T11:28:16.147Z,6.78
2022-12-23T11:30:55.597Z,8.90
2022-12-23T11:33:27.197Z,4.68
2022-12-23T11:36:03.608Z,3.80
2022-12-23T11:38:32.070Z,4.85
2022-12-23T11:41:01.498Z,6.82
2022-12-23T11:43:29.945Z,4.38
2022-12-23T11:46:20.028Z,5.47
2022-12-23T11:48:52.948Z,3.57
2022-12-23T11:51:27.065Z,5.15
2022-12-23T11:54:01.282Z,5.57
2022-12-23T11:56:36.419Z,3.90
2022-12-23T11:59:08.657Z,5.72
2022-12-23T12:01:39.300Z,5.17
2022-12-23T12:04:10.205Z,6.25
2022-12-23T12:06:48.435Z,4.82
2022-12-23T12:09:21.570Z,5.82
2022-12-23T12:11:53.894Z,6.00
2022-12-23T12:14:27.808Z,4.53
2022-12-23T12:17:01.684Z,6.95
2022-12-23T12:19:34.564Z,4.15
2022-12-23T12:22:10.375Z,3.75
2022-12-23T12:24:42.921Z,5.57
2022-12-23T12:27:13.085Z,6.43
2022-12-23T12:29:46.758Z,7.97
2022-12-23T12:32:22.319Z,5.50
2022-12-23T12:34:54.455Z,7.72
2022-12-23T12:37:30.846Z,8.77
2022-12-23T12:40:03.638Z,5.33
2022-12-23T12:42:38.835Z,5.78
2022-12-23T12:45:16.018Z,6.38
2022-12-23T12:47:56.026Z,4.63
2022-12-23T12:50:31.679Z,4.38
2022-12-23T12:53:03.540Z,7.27
2022-12-23T12:55:34.552Z,3.70
2022-12-23T12:58:03.891Z,5.57
2022-12-23T13:00:43.444Z,5.38
2022-12-23T13:03:30.415Z,5.80
2022-12-23T13:06:08.212Z,5.37
2022-12-23T13:08:54.854Z,5.63
2022-12-23T13:11:29.844Z,5.35
2022-12-23T13:14:05.497Z,4.28
2022-12-23T13:16:43.999Z,4.38
2022-12-23T13:19:23.129Z,5.60
2022-12-23T13:21:55.131Z,6.57
2022-12-23T13:24:28.039Z,5.00
2022-12-23T13:27:06.933Z,4.57
2022-12-23T13:29:57.806Z,3.88
2022-12-23T13:32:38.347Z,4.87
2022-12-23T13:35:20.729Z,7.85
2022-12-23T13:37:56.892Z,4.82
2022-12-23T13:40:37.371Z,5.50
2022-12-23T13:43:12.482Z,4.60
2022-12-23T13:45:43.927Z,8.00
2022-12-23T13:48:35.033Z,6.03
2022-12-23T13:51:11.287Z,6.43
2022-12-23T13:53:50.682Z,6.97
2022-12-23T13:56:27.051Z,6.15
2022-12-23T13:58:55.691Z,6.60
2022-12-23T14:01:35.447Z,5.20
2022-12-23T14:04:38.093Z,5.88
2022-12-23T14:07:19.128Z,7.72
2022-12-23T14:09:53.134Z,4.68
2022-12-23T14:12:27.009Z,5.23
2022-12-23T14:15:15.806Z,4.00
2022-12-23T14:18:02.463Z,6.53
2022-12-23T14:20:47.124Z,4.47
2022-12-23T14:23:32.917Z,4.80
2022-12-23T14:26:20.510Z,7.20
2022-12-23T14:29:02.920Z,4.18
2022-12-23T14:31:35.895Z,5.93
2022-12-23T14:34:07.455Z,4.68
2022-12-23T14:36:35.369Z,6.10
2022-12-23T14:39:31.824Z,6.17
2022-12-23T14:42:05.457Z,7.38
2022-12-23T14:44:50.428Z,3.25
2022-12-23T14:47:34.114Z,3.63
2022-12-23T14:50:39.623Z,5.05
2022-12-23T14:53:22.718Z,6.97
2022-12-23T14:55:53.260Z,3.33
2022-12-23T14:58:45.652Z,3.85
2022-12-23T15:01:17.759Z,4.43
2022-12-23T15:03:48.954Z,3.15
2022-12-23T15:06:26.877Z,18.77
2022-12-23T15:08:56.665Z,16.50
2022-12-23T15:11:28.936Z,6.30
2022-12-23T15:13:59.510Z,4.82
2022-12-23T15:16:33.863Z,6.60
2022-12-23T15:19:13.436Z,4.00
2022-12-23T15:21:44.968Z,4.85
2022-12-23T15:24:17.521Z,3.55
2022-12-23T15:27:09.823Z,3.92
2022-12-23T15:29:40.140Z,2.97
2022-12-23T15:32:07.968Z,2.83
2022-12-23T15:34:35.810Z,3.33
2022-12-23T15:37:10.661Z,5.38
2022-12-23T15:39:43.663Z,4.43
2022-12-23T15:42:22.351Z,6.22
2022-12-23T15:44:50.177Z,4.33
2022-12-23T15:47:26.365Z,4.03
2022-12-23T15:49:54.207Z,2.53
2022-12-23T15:52:24.390Z,3.80
2022-12-23T15:54:59.880Z,5.22
2022-12-23T15:57:29.635Z,3.23
2022-12-23T15:59:59.819Z,5.15
2022-12-23T16:02:59.563Z,6.93
2022-12-23T16:05:26.633Z,6.65
2022-12-23T16:08:09.953Z,3.35
2022-12-23T16:10:38.800Z,3.70
2022-12-23T16:13:19.055Z,2.92
2022-12-23T16:15:47.790Z,4.55
2022-12-23T16:18:22.938Z,4.82
2022-12-23T16:20:53.539Z,5.00
2022-12-23T16:23:23.573Z,4.10
2022-12-23T16:25:53.980Z,5.32
2022-12-23T16:28:24.418Z,6.15
2022-12-23T16:30:54.468Z,6.97
2022-12-23T16:33:37.427Z,4.88
2022-12-23T16:36:19.577Z,5.00
2022-12-23T16:38:51.038Z,5.95
2022-12-23T16:41:20.501Z,5.65
2022-12-23T16:43:52.537Z,7.53
2022-12-23T16:46:23.104Z,6.93
2022-12-23T16:48:55.506Z,7.20
2022-12-23T16:51:24.581Z,7.55
2022-12-23T16:53:58.526Z,5.28
2022-12-23T16:56:30.875Z,6.13
2022-12-23T16:58:58.662Z,14.52
2022-12-23T17:01:28.988Z,7.90
2022-12-23T17:03:57.144Z,8.52
2022-12-23T17:06:25.966Z,7.35
2022-12-23T17:08:56.739Z,8.30
2022-12-23T17:11:28.843Z,12.90
2022-12-23T17:14:03.531Z,6.90
2022-12-23T17:16:33.958Z,5.90
2022-12-23T17:19:01.797Z,5.72
2022-12-23T17:21:32.445Z,5.30
2022-12-23T17:24:07.312Z,9.02
2022-12-23T17:26:35.109Z,13.67
2022-12-23T17:29:03.756Z,8.95
2022-12-23T17:31:32.678Z,12.88
2022-12-23T17:34:00.573Z,9.07
2022-12-23T17:36:28.461Z,14.30
2022-12-23T17:38:56.631Z,6.73
2022-12-23T17:41:29.590Z,7.95
2022-12-23T17:43:58.069Z,7.70
2022-12-23T17:46:26.676Z,6.28
2022-12-23T17:48:54.738Z,7.93
2022-12-23T17:51:24.276Z,5.40
2022-12-23T17:53:57.729Z,7.40
2022-12-23T17:56:29.239Z,5.10
2022-12-23T17:58:57.234Z,4.57
2022-12-23T18:01:27.679Z,5.88
2022-12-23T18:03:56.231Z,5.13
2022-12-23T18:06:25.477Z,11.52
2022-12-23T18:08:53.480Z,6.72
2022-12-23T18:11:24.589Z,7.93
2022-12-23T18:13:55.026Z,8.43
2022-12-23T18:16:22.964Z,7.07
2022-12-23T18:18:50.793Z,9.30
2022-12-23T18:21:23.670Z,7.72
2022-12-23T18:23:52.324Z,7.35
2022-12-23T18:26:20.138Z,10.32
2022-12-23T18:28:48.068Z,11.13
2022-12-23T18:31:19.826Z,11.18
2022-12-23T18:33:48.176Z,7.18
2022-12-23T18:36:23.268Z,9.48
2022-12-23T18:38:52.173Z,15.25
2022-12-23T18:41:20.463Z,14.83
2022-12-23T18:43:48.441Z,18.15
2022-12-23T18:46:20.109Z,8.70
2022-12-23T18:48:51.668Z,10.48
2022-12-23T18:51:22.355Z,14.90
2022-12-23T18:53:50.644Z,17.53
2022-12-23T18:56:21.270Z,10.65
2022-12-23T18:58:49.425Z,8.75
2022-12-23T19:01:19.413Z,13.98
2022-12-23T19:03:48.103Z,10.32
2022-12-23T19:06:16.954Z,15.00
2022-12-23T19:08:45.167Z,11.15
2022-12-23T19:11:13.867Z,12.18
2022-12-23T19:13:41.945Z,11.52
2022-12-23T19:16:14.073Z,9.98
2022-12-23T19:18:43.627Z,9.37
2022-12-23T19:21:11.414Z,8.18
2022-12-23T19:23:41.434Z,9.15
2022-12-23T19:26:10.313Z,10.02
2022-12-23T19:28:38.580Z,7.15
2022-12-23T19:31:08.763Z,8.13
2022-12-23T19:33:38.819Z,10.00
2022-12-23T19:36:12.173Z,11.65
2022-12-23T19:38:40.404Z,9.20
2022-12-23T19:41:09.470Z,8.65
2022-12-23T19:43:38.620Z,8.83
2022-12-23T19:46:08.834Z,7.10
2022-12-23T19:48:37.115Z,6.82
2022-12-23T19:51:07.737Z,9.70
2022-12-23T19:53:37.071Z,6.90
2022-12-23T19:56:06.950Z,8.13
2022-12-23T19:58:36.346Z,9.75
2022-12-23T20:01:09.773Z,7.85
2022-12-23T20:03:38.728Z,8.60
2022-12-23T20:06:09.043Z,6.47
2022-12-23T20:08:38.341Z,5.93
2022-12-23T20:11:08.817Z,7.53
2022-12-23T20:13:37.675Z,6.90
2022-12-23T20:16:06.950Z,7.30
2022-12-23T20:18:35.122Z,8.93
2022-12-23T20:21:03.300Z,8.47
2022-12-23T20:23:32.117Z,10.45
2022-12-23T20:26:01.864Z,9.55
2022-12-23T20:28:30.317Z,13.30
2022-12-23T20:31:07.445Z,14.63
2022-12-23T20:33:37.130Z,15.60
2022-12-23T20:36:07.435Z,17.15
2022-12-23T20:38:35.985Z,18.63
2022-12-23T20:41:05.490Z,16.67
2022-12-23T20:43:34.660Z,8.73
2022-12-23T20:46:02.540Z,15.10
2022-12-23T20:48:34.007Z,10.27
2022-12-23T20:51:05.211Z,9.40
2022-12-23T20:53:33.001Z,9.55
2022-12-23T20:56:01.071Z,7.95
2022-12-23T20:58:47.597Z,13.37
2022-12-23T21:01:15.810Z,7.47
2022-12-23T21:03:43.915Z,15.38
2022-12-23T21:06:11.835Z,12.77
2022-12-23T21:08:40.215Z,9.02
2022-12-23T21:11:08.708Z,11.37
2022-12-23T21:13:40.325Z,6.85
2022-12-23T21:16:10.211Z,3.83
2022-12-23T21:18:41.401Z,7.20
2022-12-23T21:21:09.831Z,5.45
2022-12-23T21:23:39.158Z,7.97
2022-12-23T21:26:12.228Z,5.72
2022-12-23T21:28:42.727Z,6.38
2022-12-23T21:31:11.516Z,6.03
2022-12-23T21:33:41.407Z,5.43
2022-12-23T21:36:11.772Z,5.23
2022-12-23T21:38:44.655Z,7.97
2022-12-23T21:41:14.186Z,7.45
2022-12-23T21:43:43.918Z,5.07
2022-12-23T21:46:15.098Z,7.65
2022-12-23T21:48:43.460Z,8.70
2022-12-23T21:51:14.219Z,5.72
2022-12-23T21:53:43.009Z,6.47
2022-12-23T21:56:14.445Z,9.20
2022-12-23T21:58:44.064Z,8.88
2022-12-23T22:01:14.418Z,4.70
2022-12-23T22:03:43.140Z,4.68
2022-12-23T22:06:12.859Z,5.05
2022-12-23T22:08:41.395Z,7.82
2022-12-23T22:11:10.162Z,4.53
2022-12-23T22:13:38.757Z,8.17
2022-12-23T22:16:11.198Z,5.75
2022-12-23T22:18:39.521Z,10.20
2022-12-23T22:21:09.052Z,5.50
2022-12-23T22:23:37.108Z,6.30
2022-12-23T22:26:05.980Z,7.47
2022-12-23T22:28:35.883Z,7.97
2022-12-23T22:31:04.555Z,5.50
2022-12-23T22:33:34.994Z,8.52
2022-12-23T22:36:02.950Z,5.88
2022-12-23T22:38:30.807Z,7.43
2022-12-23T22:40:58.595Z,8.52
2022-12-23T22:43:26.415Z,7.07
2022-12-23T22:45:57.860Z,9.02
2022-12-23T22:48:26.649Z,9.00
2022-12-23T22:51:03.079Z,8.87
2022-12-23T22:53:31.057Z,5.10
2022-12-23T22:55:59.507Z,5.60
2022-12-23T22:58:28.532Z,9.38
2022-12-23T23:00:56.396Z,6.97
2022-12-23T23:03:25.493Z,6.53
2022-12-23T23:05:59.305Z,7.47
2022-12-23T23:08:27.760Z,6.43
2022-12-23T23:10:57.060Z,7.25
2022-12-23T23:13:26.154Z,13.05
2022-12-23T23:15:54.608Z,7.70
2022-12-23T23:18:22.769Z,9.45
2022-12-23T23:20:50.941Z,11.75
2022-12-23T23:23:20.655Z,7.18
2022-12-23T23:25:48.895Z,7.55
2022-12-23T23:28:16.910Z,7.73
2022-12-23T23:30:44.948Z,8.85
2022-12-23T23:33:12.979Z,6.95
2022-12-23T23:35:40.955Z,7.05
2022-12-23T23:38:09.055Z,7.35
2022-12-23T23:40:38.273Z,5.97
2022-12-23T23:43:06.238Z,11.15
2022-12-23T23:45:34.163Z,12.35
2022-12-23T23:48:01.947Z,6.90
2022-12-23T23:50:29.714Z,10.68
2022-12-23T23:52:57.528Z,8.07
2022-12-23T23:55:25.353Z,4.78
2022-12-23T23:57:54.543Z,5.68
